Clare Christine — V2DT7 — position and weather

sailwx.info

Track history (hours):
 
Tides and Currents Weather Stations Pressure Air Temp Water Temp Dewpoint Dewpoint Depression Visibility Wind Speed Wind Dir Waves Ship Positions

Clare Christine

Last reported at 2014-Oct-18 16:33 UTC. Time now 2014-Oct-22 15:31 UTC.
Position N 50°57' E 001°13'.

Length 89 m; draft 5.8 m.

Type: Cargo ship. MMSI: 305379000.

Date/timePositionNaut miles runAvg speedWind from/ knotsBaromVisibWave heightAir tempDewpointWater temp
2014-Oct-18 16:33N 50°57' E 001°13'9 8.8
2014-Oct-18 15:33N 51°02' E 001°23'18 9.0
2014-Oct-18 13:33N 51°14' E 001°45'9 8.8
2014-Oct-18 12:33N 51°21' E 001°53'9 8.5
2014-Oct-18 11:34N 51°28' E 002°01'8 7.9
2014-Oct-18 10:33N 51°34' E 002°09'8 7.7
2014-Oct-18 09:33N 51°40' E 002°17'10 7.5
2014-Oct-18 08:12N 51°48' E 002°27'5 7.9
2014-Oct-18 07:30N 51°52' E 002°33'54 9.1
2014-Oct-18 01:33N 52°35' E 003°28'9 8.9
2014-Oct-18 00:31N 52°42' E 003°38'9 8.6
2014-Oct-17 23:27N 52°49' E 003°48'8 8.4
2014-Oct-17 22:29N 52°55' E 003°57'9 8.4
2014-Oct-17 21:26N 53°01' E 004°08'8 8.9
2014-Oct-17 20:32N 53°06' E 004°18'23 9.5
2014-Oct-17 18:09N 53°26' E 004°36'5 9.0
2014-Oct-17 17:33N 53°29' E 004°42'10 9.7
2014-Oct-17 16:33N 53°33' E 004°58'9 9.2
2014-Oct-17 15:33N 53°36' E 005°12'9 8.6
2014-Oct-17 14:33N 53°38' E 005°26'9 8.5
2014-Oct-17 13:33N 53°41' E 005°40'8 8.5
2014-Oct-17 12:33N 53°43' E 005°53'9 8.7
2014-Oct-17 11:30N 53°46' E 006°08'52 9.5
2014-Oct-17 06:04N 53°59' E 007°33'4 8.1
2014-Oct-17 05:33N 53°59' E 007°40'8 8.4
2014-Oct-17 04:33N 53°53' E 007°50'9 8.6
2014-Oct-17 03:33N 53°50' E 008°04'9 8.8
2014-Oct-17 02:33N 53°44' E 008°15'8 8.4
2014-Oct-17 01:33N 53°39' E 008°25'9 8.7
2014-Oct-17 00:33N 53°32' E 008°34'1010.3
2014-Oct-16 23:33N 53°21' E 008°30'1110.5
2014-Oct-16 22:32N 53°11' E 008°33'7 6.6
2014-Oct-16 21:31N 53°07' E 008°43'0 0.3
2014-Oct-16 20:32N 53°07' E 008°43'0 0.0
2014-Oct-16 19:32N 53°07' E 008°43'0 0.0
2014-Oct-16 18:32N 53°07' E 008°43'0 0.0
2014-Oct-16 17:32N 53°07' E 008°43'0 0.0
2014-Oct-16 16:32N 53°07' E 008°43'0 0.0
2014-Oct-16 15:32N 53°07' E 008°43'0 0.0
2014-Oct-16 14:32N 53°07' E 008°43'0 0.0
2014-Oct-16 13:32N 53°07' E 008°43'0 0.0
2014-Oct-16 12:32N 53°07' E 008°43'0 0.0
2014-Oct-16 11:32N 53°07' E 008°43'0 0.0
2014-Oct-16 10:32N 53°07' E 008°43'0 0.0
2014-Oct-16 09:32N 53°07' E 008°43'0 0.0
2014-Oct-16 08:32N 53°07' E 008°43'0 0.0
2014-Oct-16 07:32N 53°07' E 008°43'0 0.0
2014-Oct-16 06:32N 53°07' E 008°43'0 0.0
2014-Oct-16 05:32N 53°07' E 008°43'0 0.0
2014-Oct-16 04:32N 53°07' E 008°43'0 0.0
2014-Oct-16 03:32N 53°07' E 008°43'0 0.0
2014-Oct-16 02:32N 53°07' E 008°43'0 0.0
2014-Oct-16 01:32N 53°07' E 008°43'0 0.0
2014-Oct-16 00:32N 53°07' E 008°43'0 0.0
2014-Oct-15 23:32N 53°07' E 008°43'0 0.0
2014-Oct-15 22:32N 53°07' E 008°43'0 0.0
2014-Oct-15 21:32N 53°07' E 008°43'0 0.0
2014-Oct-15 20:32N 53°07' E 008°43'0 0.0
2014-Oct-15 19:32N 53°07' E 008°43'0 0.5
2014-Oct-15 18:33N 53°07' E 008°44'0 0.0
2014-Oct-15 17:33N 53°07' E 008°44'0 0.0
2014-Oct-15 16:33N 53°07' E 008°44'0 0.0
2014-Oct-15 15:33N 53°07' E 008°44'0 0.0
2014-Oct-15 14:33N 53°07' E 008°44'0 0.0
2014-Oct-15 13:33N 53°07' E 008°44'0 0.0
2014-Oct-15 12:33N 53°07' E 008°44'0 0.0
2014-Oct-15 11:33N 53°07' E 008°44'0 0.0
2014-Oct-15 10:33N 53°07' E 008°44'0 0.0
2014-Oct-15 09:33N 53°07' E 008°44'0 0.0
2014-Oct-15 08:33N 53°07' E 008°44'0 0.0
2014-Oct-15 07:33N 53°07' E 008°44'0 0.0
2014-Oct-15 06:33N 53°07' E 008°44'0 0.0
2014-Oct-15 05:33N 53°07' E 008°44'0 0.0
2014-Oct-15 04:33N 53°07' E 008°44'0 0.0
2014-Oct-15 03:33N 53°07' E 008°44'0 0.0
2014-Oct-15 02:33N 53°07' E 008°44'0 0.0
2014-Oct-15 01:33N 53°07' E 008°44'0 0.0
2014-Oct-15 00:33N 53°07' E 008°44'0 0.0
2014-Oct-14 23:33N 53°07' E 008°44'0 0.0
2014-Oct-14 22:33N 53°07' E 008°44'0 0.0
2014-Oct-14 21:33N 53°07' E 008°44'0 0.0
2014-Oct-14 20:33N 53°07' E 008°44'0 0.0
2014-Oct-14 19:33N 53°07' E 008°44'0 0.0
2014-Oct-14 18:33N 53°07' E 008°44'0 0.0
2014-Oct-14 17:33N 53°07' E 008°44'0 0.0
2014-Oct-14 16:33N 53°07' E 008°44'0 0.0
2014-Oct-14 15:33N 53°07' E 008°44'0 0.0
2014-Oct-14 14:33N 53°07' E 008°44'0 0.0
2014-Oct-14 13:33N 53°07' E 008°44'0 0.0
2014-Oct-14 12:33N 53°07' E 008°44'0 0.0
2014-Oct-14 11:33N 53°07' E 008°44'0 0.0
2014-Oct-14 10:33N 53°07' E 008°44'0 0.0
2014-Oct-14 09:33N 53°07' E 008°44'0 0.0
2014-Oct-14 08:33N 53°07' E 008°44'0 0.0
2014-Oct-14 07:33N 53°07' E 008°44'0 0.0
2014-Oct-14 06:33N 53°07' E 008°44'0 0.0
2014-Oct-14 05:33N 53°07' E 008°44'0 0.0
2014-Oct-14 04:33N 53°07' E 008°44'0 0.0
2014-Oct-14 03:33N 53°07' E 008°44'0 0.0
2014-Oct-14 02:33N 53°07' E 008°44'0 0.0
2014-Oct-14 01:33N 53°07' E 008°44'0 0.0
2014-Oct-14 00:33N 53°07' E 008°44'0 0.0
2014-Oct-13 23:33N 53°07' E 008°44'0 0.0
2014-Oct-13 22:33N 53°07' E 008°44'0 0.0
2014-Oct-13 21:33N 53°07' E 008°44'0 0.0
2014-Oct-13 20:33N 53°07' E 008°44'0 0.0
2014-Oct-13 19:33N 53°07' E 008°44'0 0.0
2014-Oct-13 18:33N 53°07' E 008°44'0 0.0
2014-Oct-13 17:33N 53°07' E 008°44'0 0.0
2014-Oct-13 16:33N 53°07' E 008°44'0 0.0
2014-Oct-13 15:33N 53°07' E 008°44'0 0.0
2014-Oct-13 14:33N 53°07' E 008°44'0 0.0
2014-Oct-13 13:33N 53°07' E 008°44'0 0.0
2014-Oct-13 12:33N 53°07' E 008°44'0 0.0
2014-Oct-13 11:34N 53°07' E 008°44'0 0.0
2014-Oct-13 10:33N 53°07' E 008°44'0 0.0
2014-Oct-13 09:33N 53°07' E 008°44'0 0.0
2014-Oct-13 08:33N 53°07' E 008°44'0 0.0
2014-Oct-13 07:33N 53°07' E 008°44'0 0.0
2014-Oct-13 06:33N 53°07' E 008°44'0 0.0
2014-Oct-13 05:33N 53°07' E 008°44'0 0.0
2014-Oct-13 04:33N 53°07' E 008°44'0 0.0
2014-Oct-13 03:34N 53°07' E 008°44'0 0.0
2014-Oct-13 02:33N 53°07' E 008°44'0 0.0
2014-Oct-13 01:33N 53°07' E 008°44'0 0.0
2014-Oct-13 00:34N 53°07' E 008°44'0 0.0
2014-Oct-12 23:33N 53°07' E 008°44'0 0.0
2014-Oct-12 22:33N 53°07' E 008°44'0 0.0
2014-Oct-12 21:33N 53°07' E 008°44'0 0.0
2014-Oct-12 20:33N 53°07' E 008°44'0 0.0
2014-Oct-12 19:33N 53°07' E 008°44'1 0.7
2014-Oct-12 18:33N 53°07' E 008°43'6 5.5
2014-Oct-12 17:33N 53°10' E 008°35'8 8.4
2014-Oct-12 16:34N 53°18' E 008°29'1110.5
2014-Oct-12 15:33N 53°29' E 008°30'9 9.0
2014-Oct-12 14:33N 53°38' E 008°28'1211.8
2014-Oct-12 13:33N 53°45' E 008°12'1111.4
2014-Oct-12 12:34N 53°51' E 007°56'1111.4
2014-Oct-12 11:33N 53°54' E 007°37'2712.0
2014-Oct-12 09:17N 53°48' E 006°52'912.1
2014-Oct-12 08:33N 53°46' E 006°37'1211.6
2014-Oct-12 07:33N 53°43' E 006°18'1111.1
2014-Oct-12 06:33N 53°40' E 006°01'1010.4
2014-Oct-12 05:33N 53°37' E 005°44'10 9.8
2014-Oct-12 04:34N 53°33' E 005°28'10 9.5
2014-Oct-12 03:33N 53°31' E 005°13'10 9.7
2014-Oct-12 02:34N 53°27' E 004°58'10 9.6
2014-Oct-12 01:34N 53°24' E 004°43'20 9.9
2014-Oct-11 23:32N 53°06' E 004°27'10 9.8
2014-Oct-11 22:33N 52°57' E 004°20'10 9.9
2014-Oct-11 21:33N 52°49' E 004°13'1010.3
2014-Oct-11 20:33N 52°41' E 004°01'1111.0
2014-Oct-11 19:33N 52°33' E 003°48'7312.2
2014-Oct-11 13:33N 51°39' E 002°28'1211.8
2014-Oct-11 12:33N 51°30' E 002°16'1010.2
2014-Oct-11 11:33N 51°21' E 002°09'9 8.6
2014-Oct-11 10:34N 51°13' E 002°05'8 8.1
2014-Oct-11 09:33N 51°09' E 001°53'8 7.6
2014-Oct-11 08:34N 51°04' E 001°44'8 7.7
2014-Oct-11 07:33N 50°58' E 001°36'8 8.3
2014-Oct-11 06:33N 50°51' E 001°28'29 9.8
2014-Oct-11 03:33N 50°28' E 000°60'1010.3
2014-Oct-11 02:33N 50°25' E 000°44'1010.4
2014-Oct-11 01:34N 50°23' E 000°28'320 6.5
2014-Oct-09 00:33N 53°51' W 006°07'10 9.6
2014-Oct-08 23:34N 53°58' W 006°17'4 4.2
2014-Oct-08 22:33N 54°00' W 006°23'0 0.0
2014-Oct-08 21:33N 54°00' W 006°23'0 0.0
2014-Oct-08 20:33N 54°00' W 006°23'0 0.0
2014-Oct-08 19:33N 54°00' W 006°23'0 0.0
2014-Oct-08 18:34N 54°00' W 006°23'0 0.0
2014-Oct-08 17:34N 54°00' W 006°23'0 0.0
2014-Oct-08 16:33N 54°00' W 006°23'  
Track history (hours):
 
Tides and Currents Weather Stations Pressure Air Temp Water Temp Dewpoint Dewpoint Depression Visibility Wind Speed Wind Dir Waves Ship Positions

Clare Christine

Last reported at 2014-Oct-18 16:33 UTC. Time now 2014-Oct-22 15:31 UTC.
Position N 50°57' E 001°13'.

Length 89 m; draft 5.8 m.

Type: Cargo ship. MMSI: 305379000.

Date/timePositionNaut miles runAvg speedWind from/ knotsBaromVisibWave heightAir tempDewpointWater temp
2014-Oct-18 16:33N 50°57' E 001°13'9 8.8
2014-Oct-18 15:33N 51°02' E 001°23'18 9.0
2014-Oct-18 13:33N 51°14' E 001°45'9 8.8
2014-Oct-18 12:33N 51°21' E 001°53'9 8.5
2014-Oct-18 11:34N 51°28' E 002°01'8 7.9
2014-Oct-18 10:33N 51°34' E 002°09'8 7.7
2014-Oct-18 09:33N 51°40' E 002°17'10 7.5
2014-Oct-18 08:12N 51°48' E 002°27'5 7.9
2014-Oct-18 07:30N 51°52' E 002°33'54 9.1
2014-Oct-18 01:33N 52°35' E 003°28'9 8.9
2014-Oct-18 00:31N 52°42' E 003°38'9 8.6
2014-Oct-17 23:27N 52°49' E 003°48'8 8.4
2014-Oct-17 22:29N 52°55' E 003°57'9 8.4
2014-Oct-17 21:26N 53°01' E 004°08'8 8.9
2014-Oct-17 20:32N 53°06' E 004°18'23 9.5
2014-Oct-17 18:09N 53°26' E 004°36'5 9.0
2014-Oct-17 17:33N 53°29' E 004°42'10 9.7
2014-Oct-17 16:33N 53°33' E 004°58'9 9.2
2014-Oct-17 15:33N 53°36' E 005°12'9 8.6
2014-Oct-17 14:33N 53°38' E 005°26'9 8.5
2014-Oct-17 13:33N 53°41' E 005°40'8 8.5
2014-Oct-17 12:33N 53°43' E 005°53'9 8.7
2014-Oct-17 11:30N 53°46' E 006°08'52 9.5
2014-Oct-17 06:04N 53°59' E 007°33'4 8.1
2014-Oct-17 05:33N 53°59' E 007°40'8 8.4
2014-Oct-17 04:33N 53°53' E 007°50'9 8.6
2014-Oct-17 03:33N 53°50' E 008°04'9 8.8
2014-Oct-17 02:33N 53°44' E 008°15'8 8.4
2014-Oct-17 01:33N 53°39' E 008°25'9 8.7
2014-Oct-17 00:33N 53°32' E 008°34'1010.3
2014-Oct-16 23:33N 53°21' E 008°30'1110.5
2014-Oct-16 22:32N 53°11' E 008°33'7 6.6
2014-Oct-16 21:31N 53°07' E 008°43'0 0.3
2014-Oct-16 20:32N 53°07' E 008°43'0 0.0
2014-Oct-16 19:32N 53°07' E 008°43'0 0.0
2014-Oct-16 18:32N 53°07' E 008°43'0 0.0
2014-Oct-16 17:32N 53°07' E 008°43'0 0.0
2014-Oct-16 16:32N 53°07' E 008°43'0 0.0
2014-Oct-16 15:32N 53°07' E 008°43'0 0.0
2014-Oct-16 14:32N 53°07' E 008°43'0 0.0
2014-Oct-16 13:32N 53°07' E 008°43'0 0.0
2014-Oct-16 12:32N 53°07' E 008°43'0 0.0
2014-Oct-16 11:32N 53°07' E 008°43'0 0.0
2014-Oct-16 10:32N 53°07' E 008°43'0 0.0
2014-Oct-16 09:32N 53°07' E 008°43'0 0.0
2014-Oct-16 08:32N 53°07' E 008°43'0 0.0
2014-Oct-16 07:32N 53°07' E 008°43'0 0.0
2014-Oct-16 06:32N 53°07' E 008°43'0 0.0
2014-Oct-16 05:32N 53°07' E 008°43'0 0.0
2014-Oct-16 04:32N 53°07' E 008°43'0 0.0
2014-Oct-16 03:32N 53°07' E 008°43'0 0.0
2014-Oct-16 02:32N 53°07' E 008°43'0 0.0
2014-Oct-16 01:32N 53°07' E 008°43'0 0.0
2014-Oct-16 00:32N 53°07' E 008°43'0 0.0
2014-Oct-15 23:32N 53°07' E 008°43'0 0.0
2014-Oct-15 22:32N 53°07' E 008°43'0 0.0
2014-Oct-15 21:32N 53°07' E 008°43'0 0.0
2014-Oct-15 20:32N 53°07' E 008°43'0 0.0
2014-Oct-15 19:32N 53°07' E 008°43'0 0.5
2014-Oct-15 18:33N 53°07' E 008°44'0 0.0
2014-Oct-15 17:33N 53°07' E 008°44'0 0.0
2014-Oct-15 16:33N 53°07' E 008°44'0 0.0
2014-Oct-15 15:33N 53°07' E 008°44'0 0.0
2014-Oct-15 14:33N 53°07' E 008°44'0 0.0
2014-Oct-15 13:33N 53°07' E 008°44'0 0.0
2014-Oct-15 12:33N 53°07' E 008°44'0 0.0
2014-Oct-15 11:33N 53°07' E 008°44'0 0.0
2014-Oct-15 10:33N 53°07' E 008°44'0 0.0
2014-Oct-15 09:33N 53°07' E 008°44'0 0.0
2014-Oct-15 08:33N 53°07' E 008°44'0 0.0
2014-Oct-15 07:33N 53°07' E 008°44'0 0.0
2014-Oct-15 06:33N 53°07' E 008°44'0 0.0
2014-Oct-15 05:33N 53°07' E 008°44'0 0.0
2014-Oct-15 04:33N 53°07' E 008°44'0 0.0
2014-Oct-15 03:33N 53°07' E 008°44'0 0.0
2014-Oct-15 02:33N 53°07' E 008°44'0 0.0
2014-Oct-15 01:33N 53°07' E 008°44'0 0.0
2014-Oct-15 00:33N 53°07' E 008°44'0 0.0
2014-Oct-14 23:33N 53°07' E 008°44'0 0.0
2014-Oct-14 22:33N 53°07' E 008°44'0 0.0
2014-Oct-14 21:33N 53°07' E 008°44'0 0.0
2014-Oct-14 20:33N 53°07' E 008°44'0 0.0
2014-Oct-14 19:33N 53°07' E 008°44'0 0.0
2014-Oct-14 18:33N 53°07' E 008°44'0 0.0
2014-Oct-14 17:33N 53°07' E 008°44'0 0.0
2014-Oct-14 16:33N 53°07' E 008°44'0 0.0
2014-Oct-14 15:33N 53°07' E 008°44'0 0.0
2014-Oct-14 14:33N 53°07' E 008°44'0 0.0
2014-Oct-14 13:33N 53°07' E 008°44'0 0.0
2014-Oct-14 12:33N 53°07' E 008°44'0 0.0
2014-Oct-14 11:33N 53°07' E 008°44'0 0.0
2014-Oct-14 10:33N 53°07' E 008°44'0 0.0
2014-Oct-14 09:33N 53°07' E 008°44'0 0.0
2014-Oct-14 08:33N 53°07' E 008°44'0 0.0
2014-Oct-14 07:33N 53°07' E 008°44'0 0.0
2014-Oct-14 06:33N 53°07' E 008°44'0 0.0
2014-Oct-14 05:33N 53°07' E 008°44'0 0.0
2014-Oct-14 04:33N 53°07' E 008°44'0 0.0
2014-Oct-14 03:33N 53°07' E 008°44'0 0.0
2014-Oct-14 02:33N 53°07' E 008°44'0 0.0
2014-Oct-14 01:33N 53°07' E 008°44'0 0.0
2014-Oct-14 00:33N 53°07' E 008°44'0 0.0
2014-Oct-13 23:33N 53°07' E 008°44'0 0.0
2014-Oct-13 22:33N 53°07' E 008°44'0 0.0
2014-Oct-13 21:33N 53°07' E 008°44'0 0.0
2014-Oct-13 20:33N 53°07' E 008°44'0 0.0
2014-Oct-13 19:33N 53°07' E 008°44'0 0.0
2014-Oct-13 18:33N 53°07' E 008°44'0 0.0
2014-Oct-13 17:33N 53°07' E 008°44'0 0.0
2014-Oct-13 16:33N 53°07' E 008°44'0 0.0
2014-Oct-13 15:33N 53°07' E 008°44'0 0.0
2014-Oct-13 14:33N 53°07' E 008°44'0 0.0
2014-Oct-13 13:33N 53°07' E 008°44'0 0.0
2014-Oct-13 12:33N 53°07' E 008°44'0 0.0
2014-Oct-13 11:34N 53°07' E 008°44'0 0.0
2014-Oct-13 10:33N 53°07' E 008°44'0 0.0
2014-Oct-13 09:33N 53°07' E 008°44'0 0.0
2014-Oct-13 08:33N 53°07' E 008°44'0 0.0
2014-Oct-13 07:33N 53°07' E 008°44'0 0.0
2014-Oct-13 06:33N 53°07' E 008°44'0 0.0
2014-Oct-13 05:33N 53°07' E 008°44'0 0.0
2014-Oct-13 04:33N 53°07' E 008°44'0 0.0
2014-Oct-13 03:34N 53°07' E 008°44'0 0.0
2014-Oct-13 02:33N 53°07' E 008°44'0 0.0
2014-Oct-13 01:33N 53°07' E 008°44'0 0.0
2014-Oct-13 00:34N 53°07' E 008°44'0 0.0
2014-Oct-12 23:33N 53°07' E 008°44'0 0.0
2014-Oct-12 22:33N 53°07' E 008°44'0 0.0
2014-Oct-12 21:33N 53°07' E 008°44'0 0.0
2014-Oct-12 20:33N 53°07' E 008°44'0 0.0
2014-Oct-12 19:33N 53°07' E 008°44'1 0.7
2014-Oct-12 18:33N 53°07' E 008°43'6 5.5
2014-Oct-12 17:33N 53°10' E 008°35'8 8.4
2014-Oct-12 16:34N 53°18' E 008°29'1110.5
2014-Oct-12 15:33N 53°29' E 008°30'9 9.0
2014-Oct-12 14:33N 53°38' E 008°28'1211.8
2014-Oct-12 13:33N 53°45' E 008°12'1111.4
2014-Oct-12 12:34N 53°51' E 007°56'1111.4
2014-Oct-12 11:33N 53°54' E 007°37'2712.0
2014-Oct-12 09:17N 53°48' E 006°52'912.1
2014-Oct-12 08:33N 53°46' E 006°37'1211.6
2014-Oct-12 07:33N 53°43' E 006°18'1111.1
2014-Oct-12 06:33N 53°40' E 006°01'1010.4
2014-Oct-12 05:33N 53°37' E 005°44'10 9.8
2014-Oct-12 04:34N 53°33' E 005°28'10 9.5
2014-Oct-12 03:33N 53°31' E 005°13'10 9.7
2014-Oct-12 02:34N 53°27' E 004°58'10 9.6
2014-Oct-12 01:34N 53°24' E 004°43'20 9.9
2014-Oct-11 23:32N 53°06' E 004°27'10 9.8
2014-Oct-11 22:33N 52°57' E 004°20'10 9.9
2014-Oct-11 21:33N 52°49' E 004°13'1010.3
2014-Oct-11 20:33N 52°41' E 004°01'1111.0
2014-Oct-11 19:33N 52°33' E 003°48'7312.2
2014-Oct-11 13:33N 51°39' E 002°28'1211.8
2014-Oct-11 12:33N 51°30' E 002°16'1010.2
2014-Oct-11 11:33N 51°21' E 002°09'9 8.6
2014-Oct-11 10:34N 51°13' E 002°05'8 8.1
2014-Oct-11 09:33N 51°09' E 001°53'8 7.6
2014-Oct-11 08:34N 51°04' E 001°44'8 7.7
2014-Oct-11 07:33N 50°58' E 001°36'8 8.3
2014-Oct-11 06:33N 50°51' E 001°28'29 9.8
2014-Oct-11 03:33N 50°28' E 000°60'1010.3
2014-Oct-11 02:33N 50°25' E 000°44'1010.4
2014-Oct-11 01:34N 50°23' E 000°28'320 6.5
2014-Oct-09 00:33N 53°51' W 006°07'10 9.6
2014-Oct-08 23:34N 53°58' W 006°17'4 4.2
2014-Oct-08 22:33N 54°00' W 006°23'0 0.0
2014-Oct-08 21:33N 54°00' W 006°23'0 0.0
2014-Oct-08 20:33N 54°00' W 006°23'0 0.0
2014-Oct-08 19:33N 54°00' W 006°23'0 0.0
2014-Oct-08 18:34N 54°00' W 006°23'0 0.0
2014-Oct-08 17:34N 54°00' W 006°23'0 0.0
2014-Oct-08 16:33N 54°00' W 006°23'  

Dump ship's entire track history